createdAt,value
2022-12-31T00:00:52.838Z,95.67
2022-12-31T00:03:22.517Z,95.17
2022-12-31T00:05:52.652Z,95.01
2022-12-31T00:08:20.996Z,95.31
2022-12-31T00:10:49.384Z,95.44
2022-12-31T00:13:18.120Z,95.39
2022-12-31T00:15:46.900Z,95.73
2022-12-31T00:18:15.214Z,95.16
2022-12-31T00:20:43.713Z,95.33
2022-12-31T00:23:14.045Z,95.28
2022-12-31T00:25:43.063Z,95.06
2022-12-31T00:28:11.612Z,94.99
2022-12-31T00:30:39.964Z,95.26
2022-12-31T00:33:08.721Z,95.32
2022-12-31T00:35:37.234Z,95.37
2022-12-31T00:38:05.793Z,94.92
2022-12-31T00:40:35.757Z,95.22
2022-12-31T00:43:04.356Z,95.44
2022-12-31T00:45:32.851Z,95.37
2022-12-31T00:48:01.199Z,94.94
2022-12-31T00:50:29.577Z,95.19
2022-12-31T00:52:57.866Z,95.11
2022-12-31T00:55:26.619Z,94.87
2022-12-31T00:57:56.673Z,94.87
2022-12-31T01:00:25.227Z,95.13
2022-12-31T01:02:53.697Z,94.97
2022-12-31T01:05:22.076Z,95.04
2022-12-31T01:07:50.694Z,95.07
2022-12-31T01:10:39.295Z,94.92
2022-12-31T01:13:09.312Z,95.28
2022-12-31T01:15:39.243Z,95.42
2022-12-31T01:18:08.803Z,95.29
2022-12-31T01:20:38.919Z,95.25
2022-12-31T01:23:07.645Z,95.17
2022-12-31T01:25:39.286Z,95.15
2022-12-31T01:28:10.048Z,95.02
2022-12-31T01:30:41.636Z,95.32
2022-12-31T01:33:10.224Z,95.19
2022-12-31T01:35:38.540Z,95.71
2022-12-31T01:38:07.064Z,95.57
2022-12-31T01:40:38.519Z,95.34
2022-12-31T01:43:16.831Z,94.67
2022-12-31T01:45:47.013Z,94.48
2022-12-31T01:48:19.593Z,94.14
2022-12-31T01:50:48.480Z,93.71
2022-12-31T01:53:18.978Z,93.19
2022-12-31T01:55:51.712Z,92.45
2022-12-31T01:58:24.395Z,92.22
2022-12-31T02:00:54.558Z,92.08
2022-12-31T02:03:25.041Z,91.78
2022-12-31T02:05:59.626Z,91.88
2022-12-31T02:08:27.963Z,91.88
2022-12-31T02:10:56.598Z,91.86
2022-12-31T02:13:26.800Z,92.01
2022-12-31T02:16:01.911Z,92.21
2022-12-31T02:18:38.142Z,92.74
2022-12-31T02:21:38.380Z,92.76
2022-12-31T02:24:32.971Z,93.41
2022-12-31T02:27:07.084Z,94.14
2022-12-31T02:30:16.981Z,94.17
2022-12-31T02:33:09.997Z,93.85
2022-12-31T02:35:48.338Z,93.89
2022-12-31T02:38:22.170Z,94.00
2022-12-31T02:40:50.862Z,94.44
2022-12-31T02:43:19.238Z,94.46
2022-12-31T02:45:52.340Z,94.41
2022-12-31T02:48:41.114Z,94.31
2022-12-31T02:51:21.882Z,94.15
2022-12-31T02:54:23.347Z,93.98
2022-12-31T02:57:03.847Z,94.12
2022-12-31T02:59:52.509Z,93.87
2022-12-31T03:02:23.391Z,93.72
2022-12-31T03:04:54.971Z,93.88
2022-12-31T03:07:25.802Z,93.85
2022-12-31T03:09:54.338Z,93.69
2022-12-31T03:12:43.479Z,93.69
2022-12-31T03:15:21.018Z,93.80
2022-12-31T03:17:56.047Z,93.31
2022-12-31T03:20:45.939Z,93.42
2022-12-31T03:23:20.585Z,93.39
2022-12-31T03:25:48.670Z,93.46
2022-12-31T03:28:19.259Z,93.89
2022-12-31T03:30:49.962Z,93.82
2022-12-31T03:33:18.991Z,93.76
2022-12-31T03:35:49.930Z,93.45
2022-12-31T03:38:19.050Z,93.20
2022-12-31T03:40:49.883Z,93.33
2022-12-31T03:43:19.381Z,93.67
2022-12-31T03:45:50.279Z,93.48
2022-12-31T03:48:19.405Z,93.89
2022-12-31T03:50:49.457Z,94.09
2022-12-31T03:53:18.175Z,94.02
2022-12-31T03:55:46.523Z,93.93
2022-12-31T03:58:14.823Z,93.81
2022-12-31T04:00:43.763Z,93.69
2022-12-31T04:03:12.156Z,94.07
2022-12-31T04:05:41.299Z,93.99
2022-12-31T04:08:11.164Z,94.06
2022-12-31T04:10:39.501Z,94.09
2022-12-31T04:13:07.761Z,94.15
2022-12-31T04:15:36.605Z,93.90
2022-12-31T04:18:05.384Z,94.03
2022-12-31T04:20:33.784Z,93.91
2022-12-31T04:23:02.103Z,93.71
2022-12-31T04:25:32.133Z,93.78
2022-12-31T04:28:00.504Z,93.69
2022-12-31T04:30:29.017Z,93.70
2022-12-31T04:32:57.622Z,93.22
2022-12-31T04:35:25.975Z,93.56
2022-12-31T04:37:54.606Z,94.06
2022-12-31T04:40:24.545Z,93.84
2022-12-31T04:42:54.507Z,93.73
2022-12-31T04:45:22.856Z,93.89
2022-12-31T04:47:51.191Z,93.73
2022-12-31T04:50:19.485Z,93.70
2022-12-31T04:52:47.776Z,93.79
2022-12-31T04:55:16.556Z,93.93
2022-12-31T04:57:46.373Z,93.79
2022-12-31T05:00:18.118Z,93.43
2022-12-31T05:02:46.755Z,93.63
2022-12-31T05:05:15.428Z,94.02
2022-12-31T05:07:44.056Z,93.41
2022-12-31T05:10:12.369Z,93.61
2022-12-31T05:12:40.655Z,93.92
2022-12-31T05:15:10.072Z,93.84
2022-12-31T05:17:39.809Z,93.79
2022-12-31T05:20:09.113Z,93.62
2022-12-31T05:22:37.663Z,93.53
2022-12-31T05:25:07.169Z,93.50
2022-12-31T05:27:35.827Z,93.77
2022-12-31T05:30:04.405Z,93.64
2022-12-31T05:32:32.990Z,93.81
2022-12-31T05:35:02.862Z,93.44
2022-12-31T05:37:32.062Z,93.60
2022-12-31T05:40:00.603Z,93.58
2022-12-31T05:42:29.199Z,94.12
2022-12-31T05:44:57.787Z,93.91
2022-12-31T05:47:26.157Z,93.98
2022-12-31T05:49:54.502Z,94.17
2022-12-31T05:52:24.609Z,94.66
2022-12-31T05:54:53.542Z,94.78
2022-12-31T05:57:21.849Z,94.66
2022-12-31T05:59:50.221Z,94.67
2022-12-31T06:02:18.512Z,94.94
2022-12-31T06:04:47.322Z,95.06
2022-12-31T06:07:16.429Z,95.15
2022-12-31T06:09:46.743Z,95.19
2022-12-31T06:12:15.394Z,95.10
2022-12-31T06:14:45.911Z,95.38
2022-12-31T06:17:15.232Z,95.11
2022-12-31T06:19:43.813Z,94.87
2022-12-31T06:22:14.205Z,94.88
2022-12-31T06:24:42.632Z,94.60
2022-12-31T06:27:12.643Z,94.57
2022-12-31T06:29:41.003Z,94.39
2022-12-31T06:32:09.800Z,94.34
2022-12-31T06:34:38.448Z,94.33
2022-12-31T06:37:06.817Z,94.43
2022-12-31T06:39:35.455Z,94.61
2022-12-31T06:42:03.783Z,94.48
2022-12-31T06:44:33.799Z,94.60
2022-12-31T06:47:02.094Z,94.80
2022-12-31T06:49:30.677Z,94.83
2022-12-31T06:51:59.000Z,95.19
2022-12-31T06:54:27.290Z,95.45
2022-12-31T06:56:56.079Z,95.37
2022-12-31T06:59:28.115Z,95.30
2022-12-31T07:02:22.456Z,95.31
2022-12-31T07:05:11.222Z,95.02
2022-12-31T07:07:50.020Z,94.99
2022-12-31T07:10:33.125Z,94.81
2022-12-31T07:13:20.226Z,95.10
2022-12-31T07:16:01.049Z,94.87
2022-12-31T07:18:38.878Z,95.11
2022-12-31T07:21:13.711Z,94.87
2022-12-31T07:23:43.310Z,95.09
2022-12-31T07:26:22.913Z,94.79
2022-12-31T07:29:02.210Z,94.46
2022-12-31T07:31:42.405Z,94.18
2022-12-31T07:34:23.956Z,94.11
2022-12-31T07:37:02.693Z,93.61
2022-12-31T07:39:39.594Z,93.69
2022-12-31T07:42:16.611Z,93.38
2022-12-31T07:44:59.845Z,93.41
2022-12-31T07:47:30.322Z,93.19
2022-12-31T07:50:00.807Z,93.33
2022-12-31T07:52:29.636Z,93.18
2022-12-31T07:54:58.222Z,93.02
2022-12-31T07:57:35.773Z,93.04
2022-12-31T08:00:09.364Z,92.69
2022-12-31T08:03:10.401Z,92.79
2022-12-31T08:05:50.766Z,92.48
2022-12-31T08:08:30.496Z,92.29
2022-12-31T08:11:12.383Z,92.29
2022-12-31T08:13:42.930Z,91.90
2022-12-31T08:16:15.453Z,91.67
2022-12-31T08:18:44.198Z,91.62
2022-12-31T08:21:22.947Z,91.63
2022-12-31T08:24:00.278Z,91.61
2022-12-31T08:26:37.041Z,91.48
2022-12-31T08:29:24.157Z,91.44
2022-12-31T08:32:00.962Z,91.37
2022-12-31T08:34:40.752Z,91.24
2022-12-31T08:37:15.055Z,91.14
2022-12-31T08:39:58.705Z,90.87
2022-12-31T08:42:33.724Z,90.80
2022-12-31T08:45:09.938Z,91.32
2022-12-31T08:47:53.835Z,91.39
2022-12-31T08:50:25.666Z,91.30
2022-12-31T08:52:56.531Z,91.10
2022-12-31T08:55:25.546Z,91.16
2022-12-31T08:58:08.331Z,91.07
2022-12-31T09:00:38.833Z,91.31
2022-12-31T09:03:21.174Z,91.06
2022-12-31T09:05:59.165Z,90.94
2022-12-31T09:08:43.006Z,90.96
2022-12-31T09:11:22.587Z,90.92
2022-12-31T09:14:14.245Z,91.08
2022-12-31T09:16:51.626Z,90.96
2022-12-31T09:19:21.357Z,91.09
2022-12-31T09:21:50.362Z,90.97
2022-12-31T09:24:20.560Z,90.77
2022-12-31T09:26:58.780Z,90.85
2022-12-31T09:29:39.060Z,90.44
2022-12-31T09:32:15.380Z,90.46
2022-12-31T09:34:51.346Z,90.08
2022-12-31T09:37:26.250Z,89.72
2022-12-31T09:40:03.031Z,89.59
2022-12-31T09:42:59.250Z,89.15
2022-12-31T09:45:50.628Z,89.40
2022-12-31T09:48:52.067Z,89.54
2022-12-31T09:51:30.379Z,89.88
2022-12-31T09:54:28.497Z,89.84
2022-12-31T09:57:16.935Z,89.90
2022-12-31T09:59:52.698Z,89.93
2022-12-31T10:02:31.293Z,90.24
2022-12-31T10:05:17.713Z,89.88
2022-12-31T10:07:58.733Z,90.07
2022-12-31T10:10:32.202Z,89.95
2022-12-31T10:13:29.500Z,90.09
2022-12-31T10:16:25.943Z,89.85
2022-12-31T10:19:27.901Z,89.74
2022-12-31T10:22:08.046Z,89.76
2022-12-31T10:24:52.219Z,89.51
2022-12-31T10:27:34.379Z,89.22
2022-12-31T10:30:16.383Z,89.20
2022-12-31T10:32:52.393Z,89.09
2022-12-31T10:35:30.683Z,89.27
2022-12-31T10:38:10.315Z,88.97
2022-12-31T10:41:23.361Z,88.77
2022-12-31T10:44:16.003Z,88.46
2022-12-31T10:47:09.038Z,88.30
2022-12-31T10:50:15.218Z,87.96
2022-12-31T10:53:09.149Z,87.75
2022-12-31T10:56:07.828Z,87.50
2022-12-31T10:59:21.275Z,87.33
2022-12-31T11:01:56.887Z,87.26
2022-12-31T11:04:56.661Z,87.07
2022-12-31T11:07:48.376Z,86.87
2022-12-31T11:11:02.942Z,86.48
2022-12-31T11:14:03.873Z,85.95
2022-12-31T11:16:47.141Z,86.68
2022-12-31T11:19:22.693Z,86.74
2022-12-31T11:22:08.413Z,87.02
2022-12-31T11:24:53.112Z,87.26
2022-12-31T11:27:34.532Z,87.61
2022-12-31T11:30:15.463Z,87.90
2022-12-31T11:32:52.754Z,88.05
2022-12-31T11:35:29.540Z,88.12
2022-12-31T11:38:11.402Z,88.15
2022-12-31T11:40:54.233Z,88.20
2022-12-31T11:43:31.614Z,88.02
2022-12-31T11:46:26.699Z,88.00
2022-12-31T11:49:10.574Z,88.25
2022-12-31T11:52:04.152Z,88.01
2022-12-31T11:54:54.481Z,88.35
2022-12-31T11:57:28.154Z,88.64
2022-12-31T12:00:00.701Z,88.81
2022-12-31T12:02:32.513Z,88.61
2022-12-31T12:05:11.506Z,88.57
2022-12-31T12:07:40.056Z,89.00
2022-12-31T12:10:22.899Z,88.67
2022-12-31T12:12:52.207Z,88.64
2022-12-31T12:15:24.681Z,88.68
2022-12-31T12:17:56.168Z,88.09
2022-12-31T12:20:32.795Z,87.69
2022-12-31T12:23:13.939Z,87.46
2022-12-31T12:25:45.473Z,86.29
2022-12-31T12:28:24.799Z,86.56
2022-12-31T12:31:00.752Z,86.49
2022-12-31T12:33:31.026Z,86.11
2022-12-31T12:36:10.902Z,86.25
2022-12-31T12:38:40.680Z,86.73
2022-12-31T12:41:13.477Z,86.46
2022-12-31T12:43:41.871Z,86.28
2022-12-31T12:46:21.790Z,85.93
2022-12-31T12:48:56.623Z,86.19
2022-12-31T12:51:45.442Z,86.77
2022-12-31T12:54:28.314Z,86.92
2022-12-31T12:57:08.048Z,87.01
2022-12-31T13:00:03.394Z,87.44
2022-12-31T13:02:54.921Z,87.52
2022-12-31T13:05:37.754Z,87.74
2022-12-31T13:08:17.618Z,87.62
2022-12-31T13:10:58.902Z,87.82
2022-12-31T13:13:38.766Z,87.43
2022-12-31T13:16:16.651Z,87.24
2022-12-31T13:18:56.138Z,87.34
2022-12-31T13:21:45.757Z,87.26
2022-12-31T13:24:23.611Z,87.36
2022-12-31T13:27:00.146Z,87.25
2022-12-31T13:29:34.529Z,87.47
2022-12-31T13:32:06.997Z,87.60
2022-12-31T13:34:40.070Z,88.04
2022-12-31T13:37:25.184Z,87.64
2022-12-31T13:40:01.181Z,87.79
2022-12-31T13:42:36.991Z,87.96
2022-12-31T13:45:14.808Z,87.93
2022-12-31T13:47:47.667Z,87.67
2022-12-31T13:50:22.285Z,87.49
2022-12-31T13:52:55.556Z,87.39
2022-12-31T13:55:27.986Z,87.01
2022-12-31T13:57:59.773Z,87.09
2022-12-31T14:00:35.400Z,87.07
2022-12-31T14:03:13.121Z,86.62
2022-12-31T14:05:50.073Z,86.57
2022-12-31T14:08:19.481Z,86.42
2022-12-31T14:11:01.998Z,86.44
2022-12-31T14:13:44.862Z,86.31
2022-12-31T14:16:22.504Z,86.16
2022-12-31T14:19:02.382Z,86.30
2022-12-31T14:21:35.667Z,86.12
2022-12-31T14:24:14.427Z,85.83
2022-12-31T14:26:47.005Z,85.93
2022-12-31T14:29:26.842Z,86.49
2022-12-31T14:32:24.043Z,86.10
2022-12-31T14:35:02.649Z,86.20
2022-12-31T14:37:40.220Z,86.50
2022-12-31T14:40:20.275Z,86.49
2022-12-31T14:42:59.855Z,86.87
2022-12-31T14:45:38.409Z,86.88
2022-12-31T14:48:22.262Z,86.90
2022-12-31T14:50:51.274Z,86.94
2022-12-31T14:53:24.524Z,86.73
2022-12-31T14:56:03.018Z,86.83
2022-12-31T14:58:33.795Z,86.82
2022-12-31T15:01:05.557Z,86.84
2022-12-31T15:03:45.028Z,86.41
2022-12-31T15:06:42.322Z,86.73
2022-12-31T15:09:21.721Z,86.57
2022-12-31T15:12:07.776Z,86.79
2022-12-31T15:15:09.302Z,86.89
2022-12-31T15:17:48.046Z,86.79
2022-12-31T15:20:38.714Z,87.06
2022-12-31T15:23:16.377Z,87.47
2022-12-31T15:25:49.533Z,87.41
2022-12-31T15:28:37.109Z,87.23
2022-12-31T15:31:18.816Z,87.68
2022-12-31T15:33:57.857Z,88.01
2022-12-31T15:36:30.089Z,87.74
2022-12-31T15:39:09.190Z,88.47
2022-12-31T15:41:46.157Z,88.46
2022-12-31T15:44:26.394Z,88.64
2022-12-31T15:47:01.325Z,89.27
2022-12-31T15:49:38.718Z,89.09
2022-12-31T15:52:15.175Z,89.06
2022-12-31T15:54:46.818Z,89.03
2022-12-31T15:57:19.694Z,88.65
2022-12-31T15:59:48.843Z,88.78
2022-12-31T16:02:23.104Z,88.35
2022-12-31T16:04:52.078Z,88.29
2022-12-31T16:07:22.477Z,88.18
2022-12-31T16:09:55.305Z,88.22
2022-12-31T16:12:32.522Z,88.21
2022-12-31T16:15:02.513Z,88.28
2022-12-31T16:17:33.447Z,88.40
2022-12-31T16:20:03.527Z,88.37
2022-12-31T16:22:40.199Z,88.52
2022-12-31T16:25:30.726Z,88.71
2022-12-31T16:28:04.559Z,89.26
2022-12-31T16:30:35.975Z,88.95
2022-12-31T16:33:06.656Z,89.14
2022-12-31T16:35:38.153Z,89.36
2022-12-31T16:38:16.565Z,89.41
2022-12-31T16:41:06.356Z,89.43
2022-12-31T16:43:39.195Z,89.41
2022-12-31T16:46:15.912Z,89.76
2022-12-31T16:48:48.789Z,89.76
2022-12-31T16:51:23.713Z,90.23
2022-12-31T16:53:54.233Z,90.09
2022-12-31T16:56:27.723Z,89.91
2022-12-31T16:59:03.826Z,89.89
2022-12-31T17:01:35.499Z,89.94
2022-12-31T17:04:07.819Z,90.09
2022-12-31T17:06:36.911Z,89.90
2022-12-31T17:09:21.003Z,89.73
2022-12-31T17:11:54.245Z,89.97
2022-12-31T17:14:25.234Z,90.09
2022-12-31T17:17:03.041Z,89.98
2022-12-31T17:19:37.465Z,89.84
2022-12-31T17:22:10.073Z,89.85
2022-12-31T17:24:40.690Z,89.73
2022-12-31T17:27:10.663Z,89.65
2022-12-31T17:29:39.108Z,89.78
2022-12-31T17:32:28.180Z,89.59
2022-12-31T17:34:56.551Z,89.48
2022-12-31T17:37:27.863Z,89.40
2022-12-31T17:40:40.591Z,89.41
2022-12-31T17:42:50.548Z,89.55
2022-12-31T17:45:23.685Z,89.02
2022-12-31T17:47:55.783Z,89.49
2022-12-31T17:50:27.761Z,89.41
2022-12-31T17:52:58.758Z,89.61
2022-12-31T17:55:29.755Z,89.40
2022-12-31T17:57:59.114Z,89.53
2022-12-31T18:00:28.803Z,89.33
2022-12-31T18:02:57.241Z,89.44
2022-12-31T18:05:26.228Z,89.40
2022-12-31T18:07:55.368Z,89.64
2022-12-31T18:10:31.236Z,89.97
2022-12-31T18:13:01.754Z,90.11
2022-12-31T18:15:30.097Z,90.18
2022-12-31T18:17:58.443Z,89.85
2022-12-31T18:20:27.804Z,90.05
2022-12-31T18:22:57.109Z,90.05
2022-12-31T18:25:25.729Z,90.10
2022-12-31T18:27:55.421Z,89.91
2022-12-31T18:30:23.779Z,89.86
2022-12-31T18:32:52.255Z,90.12
2022-12-31T18:38:14.084Z,90.21
2022-12-31T18:40:46.567Z,89.96
2022-12-31T18:43:18.901Z,89.88
2022-12-31T18:45:50.378Z,89.99
2022-12-31T18:48:19.600Z,89.95
2022-12-31T18:50:48.965Z,89.79
2022-12-31T18:53:20.144Z,89.87
2022-12-31T18:55:50.508Z,89.98
2022-12-31T18:58:21.239Z,89.99
2022-12-31T19:00:50.786Z,90.17
2022-12-31T19:03:22.470Z,89.97
2022-12-31T19:05:54.330Z,90.10
2022-12-31T19:08:25.607Z,90.08
2022-12-31T19:10:57.406Z,90.21
2022-12-31T19:13:39.688Z,90.40
2022-12-31T19:16:16.404Z,90.19
2022-12-31T19:18:46.358Z,90.36
2022-12-31T19:21:18.737Z,89.85
2022-12-31T19:24:00.638Z,90.09
2022-12-31T19:26:34.763Z,89.90
2022-12-31T19:29:09.364Z,90.01
2022-12-31T19:31:38.660Z,90.15
2022-12-31T19:34:17.680Z,90.11
2022-12-31T19:36:47.686Z,90.15
2022-12-31T19:39:21.593Z,89.86
2022-12-31T19:42:00.191Z,89.63
2022-12-31T19:44:32.907Z,90.00
2022-12-31T19:47:07.595Z,89.75
2022-12-31T19:49:36.829Z,89.89
2022-12-31T19:52:40.444Z,89.87
2022-12-31T19:55:45.505Z,89.95
2022-12-31T20:15:42.685Z,85.63
2022-12-31T20:18:50.969Z,85.03
2022-12-31T20:21:35.235Z,84.62
2022-12-31T20:24:05.710Z,84.61
2022-12-31T20:26:49.098Z,84.21
2022-12-31T20:29:22.886Z,83.78
2022-12-31T20:32:03.536Z,83.78
2022-12-31T20:34:37.002Z,83.66
2022-12-31T20:37:14.003Z,83.86
2022-12-31T20:39:48.208Z,83.99
2022-12-31T20:42:16.972Z,83.91
2022-12-31T20:44:50.185Z,83.79
2022-12-31T20:47:22.167Z,83.40
2022-12-31T20:50:15.529Z,83.26
2022-12-31T20:53:00.610Z,83.03
2022-12-31T20:55:33.592Z,83.43
2022-12-31T20:58:21.048Z,83.08
2022-12-31T21:00:52.659Z,83.54
2022-12-31T21:04:02.342Z,83.40
2022-12-31T21:06:38.053Z,83.78
2022-12-31T21:09:09.014Z,83.75
2022-12-31T21:11:56.899Z,83.97
2022-12-31T21:14:50.348Z,83.88
2022-12-31T21:17:30.484Z,84.43
2022-12-31T21:19:59.365Z,84.86
2022-12-31T21:22:33.947Z,84.66
2022-12-31T21:25:06.665Z,84.24
2022-12-31T21:27:45.863Z,84.26
2022-12-31T21:30:28.320Z,84.06
2022-12-31T21:33:05.386Z,83.86
2022-12-31T21:35:45.697Z,83.45
2022-12-31T21:38:20.047Z,83.30
2022-12-31T21:40:48.942Z,83.06
2022-12-31T21:43:26.564Z,83.02
2022-12-31T21:46:18.205Z,82.91
2022-12-31T21:48:51.892Z,82.86
2022-12-31T21:51:23.514Z,82.81
2022-12-31T21:54:05.543Z,82.51
2022-12-31T21:56:38.360Z,82.88
2022-12-31T21:59:25.979Z,82.82
2022-12-31T22:02:13.833Z,82.66
2022-12-31T22:05:17.409Z,82.19
2022-12-31T22:07:45.080Z,82.58
2022-12-31T22:10:18.356Z,82.32
2022-12-31T22:12:50.081Z,82.09
2022-12-31T22:15:20.949Z,82.41
2022-12-31T22:17:49.493Z,82.08
2022-12-31T22:20:29.337Z,82.19
2022-12-31T22:23:09.289Z,82.28
2022-12-31T22:26:03.558Z,81.84
2022-12-31T22:28:39.040Z,81.80
2022-12-31T22:31:21.933Z,81.45
2022-12-31T22:34:00.069Z,81.41
2022-12-31T22:36:31.314Z,81.53
2022-12-31T22:39:01.365Z,81.18
2022-12-31T22:41:39.441Z,81.17
2022-12-31T22:44:15.268Z,81.45
2022-12-31T22:46:46.894Z,81.59
2022-12-31T22:49:42.464Z,81.51
2022-12-31T22:52:13.296Z,81.53
2022-12-31T22:54:43.662Z,81.56
2022-12-31T22:57:19.758Z,81.31
2022-12-31T22:59:51.456Z,81.62
2022-12-31T23:02:20.822Z,81.69
2022-12-31T23:05:15.914Z,81.70
2022-12-31T23:07:47.334Z,81.98
2022-12-31T23:10:40.465Z,81.37
2022-12-31T23:13:32.133Z,81.52
2022-12-31T23:16:32.503Z,81.58
2022-12-31T23:19:37.626Z,81.68
2022-12-31T23:22:42.991Z,81.23
2022-12-31T23:25:13.756Z,80.46
2022-12-31T23:27:48.538Z,79.60
2022-12-31T23:30:35.197Z,79.44
2022-12-31T23:33:10.468Z,79.34
2022-12-31T23:35:42.734Z,79.36
2022-12-31T23:38:16.055Z,79.44
2022-12-31T23:40:44.777Z,79.22
2022-12-31T23:43:22.617Z,79.37
2022-12-31T23:45:53.211Z,79.55
2022-12-31T23:48:22.458Z,80.00
2022-12-31T23:50:56.019Z,80.20
2022-12-31T23:53:25.018Z,80.61
2022-12-31T23:55:58.837Z,81.05
2022-12-31T23:58:30.099Z,81.48
